Pagrindinis puslapis
METAR-TAF:

METAR-TAF

Oro uostai :

Anceranana, Madagaskaras

platuma: 12-21S, ilguma: 049-18E, Aukštis: 114 m

Dabartinis oras

Ataskaita buvo paskelbta 7 valandos ir 19 minutes, ne 15:00 UTC
Vėjas 12 kt iš Pietryčių
Temperatūra 27°C
Drėgmė 74%
Slėgis 1012 hPa
Matomumas 10 km arba daugiau
Mažai debesys ne aukštis 2000 ft

METAR: FMNA 121500Z 14012KT 9999 FEW020 27/22 Q1012

Laikas: 01:19 (22:19 UTC)

Prognozė

Ataskaita buvo paskelbta 5 valandos ir 19 minutes, ne 17:00 UTC
Prognozė galioja nuo 12 metu 18 UTC su 13 metu 18 UTC
Vėjas 14 kt iš Pietryčių
Matomumas 10 km arba daugiau
Išsisklaidę debesys ne aukštis 2000 ft, Liūtiniai kamuoliniai debesys.
Tikimybė 30% :
Laikinai
nuo 13 metu 12 UTC su 13 metu 18 UTC
Matomumas: 4500 m
perkūnija, lietus

TAF: FMNA 121700Z 1218/1318 14014KT 9999 SCT020CB PROB30 TEMPO 1312/1318 4500 TSRA

Orai ataskaitas ir orų prognozės (METAR, TAF).

turimą stotys yra geltonos ir raudonos taškus žemėlapyje.

Perkelti pele per norėdami pamatyti stoties vardą.

Tada spustelėkite, norėdami matyti oro stebėjimo ir prognozės.

Norėdami pakeisti žemėlapį: spustelėkite ant žalios mygtukų su juodo kryžiaus žemyn,; žalią mygtuką su brūkšneliu, jei norite nutolinti; arba žalių rodyklių gretimoms žemėlapius.


METAR-TAF: